sensor_id;sensor_type;location;lat;lon;timestamp;temperature;humidity
46335;DHT22;32051;48.882;9.210;2022-08-01T00:02:15;23.00;79.30
46335;DHT22;32051;48.882;9.210;2022-08-01T00:04:40;23.00;79.40
46335;DHT22;32051;48.882;9.210;2022-08-01T00:07:06;23.00;79.50
46335;DHT22;32051;48.882;9.210;2022-08-01T00:09:31;23.00;79.60
46335;DHT22;32051;48.882;9.210;2022-08-01T00:11:57;22.90;79.70
46335;DHT22;32051;48.882;9.210;2022-08-01T00:14:23;22.90;80.00
46335;DHT22;32051;48.882;9.210;2022-08-01T00:16:49;22.90;80.10
46335;DHT22;32051;48.882;9.210;2022-08-01T00:19:15;22.90;80.50
46335;DHT22;32051;48.882;9.210;2022-08-01T00:21:41;22.80;80.60
46335;DHT22;32051;48.882;9.210;2022-08-01T00:24:06;22.80;80.80
46335;DHT22;32051;48.882;9.210;2022-08-01T00:26:32;22.80;81.00
46335;DHT22;32051;48.882;9.210;2022-08-01T00:28:58;22.80;81.20
46335;DHT22;32051;48.882;9.210;2022-08-01T00:31:23;22.70;81.40
46335;DHT22;32051;48.882;9.210;2022-08-01T00:33:49;22.70;81.60
46335;DHT22;32051;48.882;9.210;2022-08-01T00:36:15;22.70;81.80
46335;DHT22;32051;48.882;9.210;2022-08-01T00:38:40;22.70;81.80
46335;DHT22;32051;48.882;9.210;2022-08-01T00:41:06;22.60;82.00
46335;DHT22;32051;48.882;9.210;2022-08-01T00:43:32;22.60;82.20
46335;DHT22;32051;48.882;9.210;2022-08-01T00:45:57;22.60;82.50
46335;DHT22;32051;48.882;9.210;2022-08-01T00:48:23;22.50;82.50
46335;DHT22;32051;48.882;9.210;2022-08-01T00:50:49;22.50;82.90
46335;DHT22;32051;48.882;9.210;2022-08-01T00:53:15;22.50;83.00
46335;DHT22;32051;48.882;9.210;2022-08-01T00:55:41;22.40;83.30
46335;DHT22;32051;48.882;9.210;2022-08-01T00:58:06;22.40;83.40
46335;DHT22;32051;48.882;9.210;2022-08-01T01:00:34;22.40;83.60
46335;DHT22;32051;48.882;9.210;2022-08-01T01:03:01;22.40;83.70
46335;DHT22;32051;48.882;9.210;2022-08-01T01:05:27;22.40;83.80
46335;DHT22;32051;48.882;9.210;2022-08-01T01:08:06;22.40;84.10
46335;DHT22;32051;48.882;9.210;2022-08-01T01:10:46;22.40;84.40
46335;DHT22;32051;48.882;9.210;2022-08-01T01:13:20;22.40;84.70
46335;DHT22;32051;48.882;9.210;2022-08-01T01:15:58;22.40;84.80
46335;DHT22;32051;48.882;9.210;2022-08-01T01:18:27;22.30;85.10
46335;DHT22;32051;48.882;9.210;2022-08-01T01:29:38;22.20;86.30
46335;DHT22;32051;48.882;9.210;2022-08-01T01:32:10;22.20;86.80
46335;DHT22;32051;48.882;9.210;2022-08-01T01:34:40;22.10;87.10
46335;DHT22;32051;48.882;9.210;2022-08-01T01:37:11;22.10;87.20
46335;DHT22;32051;48.882;9.210;2022-08-01T01:39:38;22.10;88.40
46335;DHT22;32051;48.882;9.210;2022-08-01T01:42:06;22.00;88.00
46335;DHT22;32051;48.882;9.210;2022-08-01T01:44:34;22.00;88.30
46335;DHT22;32051;48.882;9.210;2022-08-01T01:47:00;22.00;88.70
46335;DHT22;32051;48.882;9.210;2022-08-01T01:49:27;22.00;89.00
46335;DHT22;32051;48.882;9.210;2022-08-01T01:51:56;21.90;89.20
46335;DHT22;32051;48.882;9.210;2022-08-01T01:54:28;21.90;89.60
46335;DHT22;32051;48.882;9.210;2022-08-01T01:56:58;21.80;89.80
46335;DHT22;32051;48.882;9.210;2022-08-01T01:59:28;21.70;90.00
46335;DHT22;32051;48.882;9.210;2022-08-01T02:01:58;21.70;90.20
46335;DHT22;32051;48.882;9.210;2022-08-01T02:04:26;21.60;90.40
46335;DHT22;32051;48.882;9.210;2022-08-01T02:06:53;21.60;90.50
46335;DHT22;32051;48.882;9.210;2022-08-01T02:09:20;21.60;90.60
46335;DHT22;32051;48.882;9.210;2022-08-01T02:11:48;21.50;90.80
46335;DHT22;32051;48.882;9.210;2022-08-01T02:14:15;21.40;91.00
46335;DHT22;32051;48.882;9.210;2022-08-01T02:16:45;21.40;91.30
46335;DHT22;32051;48.882;9.210;2022-08-01T02:19:13;21.30;91.40
46335;DHT22;32051;48.882;9.210;2022-08-01T02:21:47;21.20;91.50
46335;DHT22;32051;48.882;9.210;2022-08-01T02:24:43;21.20;91.80
46335;DHT22;32051;48.882;9.210;2022-08-01T02:27:12;21.10;92.10
46335;DHT22;32051;48.882;9.210;2022-08-01T02:29:56;21.10;92.50
46335;DHT22;32051;48.882;9.210;2022-08-01T02:32:27;21.00;92.80
46335;DHT22;32051;48.882;9.210;2022-08-01T02:34:57;20.90;93.00
46335;DHT22;32051;48.882;9.210;2022-08-01T02:37:26;20.90;93.30
46335;DHT22;32051;48.882;9.210;2022-08-01T02:39:54;20.80;93.60
46335;DHT22;32051;48.882;9.210;2022-08-01T02:42:23;20.70;93.70
46335;DHT22;32051;48.882;9.210;2022-08-01T02:44:52;20.70;94.00
46335;DHT22;32051;48.882;9.210;2022-08-01T02:47:20;20.70;94.20
46335;DHT22;32051;48.882;9.210;2022-08-01T02:49:48;20.60;94.40
46335;DHT22;32051;48.882;9.210;2022-08-01T02:52:16;20.60;94.60
46335;DHT22;32051;48.882;9.210;2022-08-01T02:54:43;20.50;94.80
46335;DHT22;32051;48.882;9.210;2022-08-01T02:57:10;20.50;95.00
46335;DHT22;32051;48.882;9.210;2022-08-01T02:59:39;20.50;95.10
46335;DHT22;32051;48.882;9.210;2022-08-01T03:02:07;20.40;95.40
46335;DHT22;32051;48.882;9.210;2022-08-01T03:04:35;20.40;95.60
46335;DHT22;32051;48.882;9.210;2022-08-01T03:07:05;20.30;96.00
46335;DHT22;32051;48.882;9.210;2022-08-01T03:09:35;20.30;96.20
46335;DHT22;32051;48.882;9.210;2022-08-01T03:12:02;20.20;96.50
46335;DHT22;32051;48.882;9.210;2022-08-01T03:14:31;20.20;96.70
46335;DHT22;32051;48.882;9.210;2022-08-01T03:16:58;20.10;97.00
46335;DHT22;32051;48.882;9.210;2022-08-01T03:19:26;20.10;97.30
46335;DHT22;32051;48.882;9.210;2022-08-01T03:21:54;20.10;97.60
46335;DHT22;32051;48.882;9.210;2022-08-01T03:24:21;20.10;97.90
46335;DHT22;32051;48.882;9.210;2022-08-01T03:26:50;20.10;98.20
46335;DHT22;32051;48.882;9.210;2022-08-01T03:29:20;20.00;98.50
46335;DHT22;32051;48.882;9.210;2022-08-01T03:31:48;20.00;99.00
46335;DHT22;32051;48.882;9.210;2022-08-01T03:34:14;20.00;98.90
46335;DHT22;32051;48.882;9.210;2022-08-01T03:36:48;19.90;99.10
46335;DHT22;32051;48.882;9.210;2022-08-01T03:39:17;19.90;99.40
46335;DHT22;32051;48.882;9.210;2022-08-01T03:41:51;19.90;99.70
46335;DHT22;32051;48.882;9.210;2022-08-01T03:44:24;19.90;99.80
46335;DHT22;32051;48.882;9.210;2022-08-01T03:46:56;19.90;99.90
46335;DHT22;32051;48.882;9.210;2022-08-01T03:49:24;19.80;99.90
46335;DHT22;32051;48.882;9.210;2022-08-01T03:51:52;19.80;99.90
46335;DHT22;32051;48.882;9.210;2022-08-01T03:54:31;19.80;99.90
46335;DHT22;32051;48.882;9.210;2022-08-01T03:57:00;19.80;99.90
46335;DHT22;32051;48.882;9.210;2022-08-01T03:59:26;19.70;99.90
46335;DHT22;32051;48.882;9.210;2022-08-01T04:01:53;19.70;99.90
46335;DHT22;32051;48.882;9.210;2022-08-01T04:04:19;19.70;99.90
46335;DHT22;32051;48.882;9.210;2022-08-01T04:06:45;19.70;99.90
46335;DHT22;32051;48.882;9.210;2022-08-01T04:09:11;19.70;99.90
46335;DHT22;32051;48.882;9.210;2022-08-01T04:11:41;19.80;99.90
46335;DHT22;32051;48.882;9.210;2022-08-01T04:14:07;19.80;99.90
46335;DHT22;32051;48.882;9.210;2022-08-01T04:16:33;19.80;99.90
46335;DHT22;32051;48.882;9.210;2022-08-01T04:19:00;19.70;99.90
46335;DHT22;32051;48.882;9.210;2022-08-01T04:21:26;19.70;99.90
46335;DHT22;32051;48.882;9.210;2022-08-01T04:23:58;19.80;99.90
46335;DHT22;32051;48.882;9.210;2022-08-01T04:26:25;19.80;99.90
46335;DHT22;32051;48.882;9.210;2022-08-01T04:28:52;19.80;99.90
46335;DHT22;32051;48.882;9.210;2022-08-01T04:31:21;19.80;99.90
46335;DHT22;32051;48.882;9.210;2022-08-01T04:33:49;19.90;99.90
46335;DHT22;32051;48.882;9.210;2022-08-01T04:36:19;19.90;99.90
46335;DHT22;32051;48.882;9.210;2022-08-01T04:38:50;19.90;99.90
46335;DHT22;32051;48.882;9.210;2022-08-01T04:41:18;20.00;99.90
46335;DHT22;32051;48.882;9.210;2022-08-01T04:43:44;20.00;99.90
46335;DHT22;32051;48.882;9.210;2022-08-01T04:46:11;20.10;99.90
46335;DHT22;32051;48.882;9.210;2022-08-01T04:48:39;20.10;99.90
46335;DHT22;32051;48.882;9.210;2022-08-01T04:51:12;20.20;99.90
46335;DHT22;32051;48.882;9.210;2022-08-01T04:53:39;20.30;99.90
46335;DHT22;32051;48.882;9.210;2022-08-01T04:56:04;20.30;99.90
46335;DHT22;32051;48.882;9.210;2022-08-01T04:58:31;20.40;99.90
46335;DHT22;32051;48.882;9.210;2022-08-01T05:00:56;20.40;99.90
46335;DHT22;32051;48.882;9.210;2022-08-01T05:03:22;20.50;99.90
46335;DHT22;32051;48.882;9.210;2022-08-01T05:05:48;20.50;99.90
46335;DHT22;32051;48.882;9.210;2022-08-01T05:08:13;20.60;99.90
46335;DHT22;32051;48.882;9.210;2022-08-01T05:10:39;20.60;99.90
46335;DHT22;32051;48.882;9.210;2022-08-01T05:13:05;20.70;99.90
46335;DHT22;32051;48.882;9.210;2022-08-01T05:15:31;20.80;99.90
46335;DHT22;32051;48.882;9.210;2022-08-01T05:17:57;20.80;99.90
46335;DHT22;32051;48.882;9.210;2022-08-01T05:20:23;20.90;99.90
46335;DHT22;32051;48.882;9.210;2022-08-01T05:22:49;20.90;99.90
46335;DHT22;32051;48.882;9.210;2022-08-01T05:25:14;21.00;99.90
46335;DHT22;32051;48.882;9.210;2022-08-01T05:27:40;21.10;99.90
46335;DHT22;32051;48.882;9.210;2022-08-01T05:30:09;21.20;99.90
46335;DHT22;32051;48.882;9.210;2022-08-01T05:32:35;21.20;99.90
46335;DHT22;32051;48.882;9.210;2022-08-01T05:35:01;21.30;99.90
46335;DHT22;32051;48.882;9.210;2022-08-01T05:37:27;21.40;99.90
46335;DHT22;32051;48.882;9.210;2022-08-01T05:39:52;21.50;99.90
46335;DHT22;32051;48.882;9.210;2022-08-01T05:42:18;21.60;99.90
46335;DHT22;32051;48.882;9.210;2022-08-01T05:44:44;21.70;99.90
46335;DHT22;32051;48.882;9.210;2022-08-01T05:47:10;21.80;99.90
46335;DHT22;32051;48.882;9.210;2022-08-01T05:49:35;21.80;99.90
46335;DHT22;32051;48.882;9.210;2022-08-01T05:52:01;21.90;99.90
46335;DHT22;32051;48.882;9.210;2022-08-01T05:54:27;22.00;99.90
46335;DHT22;32051;48.882;9.210;2022-08-01T05:56:53;22.10;99.90
46335;DHT22;32051;48.882;9.210;2022-08-01T05:59:20;22.20;99.90
46335;DHT22;32051;48.882;9.210;2022-08-01T06:01:46;22.30;99.90
46335;DHT22;32051;48.882;9.210;2022-08-01T06:04:11;22.30;99.90
46335;DHT22;32051;48.882;9.210;2022-08-01T06:06:37;22.40;99.90
46335;DHT22;32051;48.882;9.210;2022-08-01T06:09:03;22.50;99.90
46335;DHT22;32051;48.882;9.210;2022-08-01T06:11:28;22.60;99.90
46335;DHT22;32051;48.882;9.210;2022-08-01T06:13:54;22.60;99.90
46335;DHT22;32051;48.882;9.210;2022-08-01T06:16:20;22.70;99.90
46335;DHT22;32051;48.882;9.210;2022-08-01T06:18:45;22.80;99.90
46335;DHT22;32051;48.882;9.210;2022-08-01T06:21:11;22.80;99.90
46335;DHT22;32051;48.882;9.210;2022-08-01T06:23:37;22.90;99.80
46335;DHT22;32051;48.882;9.210;2022-08-01T06:26:03;23.00;99.80
46335;DHT22;32051;48.882;9.210;2022-08-01T06:28:29;23.00;99.40
46335;DHT22;32051;48.882;9.210;2022-08-01T06:30:54;23.00;99.50
46335;DHT22;32051;48.882;9.210;2022-08-01T06:33:20;23.10;99.60
46335;DHT22;32051;48.882;9.210;2022-08-01T06:35:46;23.10;99.40
46335;DHT22;32051;48.882;9.210;2022-08-01T06:38:12;23.20;99.30
46335;DHT22;32051;48.882;9.210;2022-08-01T06:40:37;23.30;99.30
46335;DHT22;32051;48.882;9.210;2022-08-01T06:43:04;23.40;99.30
46335;DHT22;32051;48.882;9.210;2022-08-01T06:45:29;23.50;99.30
46335;DHT22;32051;48.882;9.210;2022-08-01T06:47:55;23.50;98.80
46335;DHT22;32051;48.882;9.210;2022-08-01T11:25:22;32.80;76.60
46335;DHT22;32051;48.882;9.210;2022-08-01T11:27:47;32.90;76.40
46335;DHT22;32051;48.882;9.210;2022-08-01T11:32:50;32.70;75.70
46335;DHT22;32051;48.882;9.210;2022-08-01T11:35:18;32.90;75.40
46335;DHT22;32051;48.882;9.210;2022-08-01T11:37:46;33.50;74.80
46335;DHT22;32051;48.882;9.210;2022-08-01T11:40:23;34.00;72.40
46335;DHT22;32051;48.882;9.210;2022-08-01T11:42:50;34.10;72.10
46335;DHT22;32051;48.882;9.210;2022-08-01T11:45:16;34.70;71.50
46335;DHT22;32051;48.882;9.210;2022-08-01T11:47:49;35.30;70.40
46335;DHT22;32051;48.882;9.210;2022-08-01T11:50:34;35.70;69.70
46335;DHT22;32051;48.882;9.210;2022-08-01T11:53:02;36.00;67.80
46335;DHT22;32051;48.882;9.210;2022-08-01T11:55:29;36.20;67.20
46335;DHT22;32051;48.882;9.210;2022-08-01T11:58:03;36.70;67.20
46335;DHT22;32051;48.882;9.210;2022-08-01T12:00:29;36.70;65.10
46335;DHT22;32051;48.882;9.210;2022-08-01T12:03:01;36.00;65.00
46335;DHT22;32051;48.882;9.210;2022-08-01T12:05:28;35.20;66.40
46335;DHT22;32051;48.882;9.210;2022-08-01T12:07:55;34.70;67.40
46335;DHT22;32051;48.882;9.210;2022-08-01T12:10:27;34.50;67.50
46335;DHT22;32051;48.882;9.210;2022-08-01T12:13:00;35.00;67.30
46335;DHT22;32051;48.882;9.210;2022-08-01T12:15:30;35.70;66.70
46335;DHT22;32051;48.882;9.210;2022-08-01T12:17:58;35.00;66.80
46335;DHT22;32051;48.882;9.210;2022-08-01T12:20:28;33.60;68.50
46335;DHT22;32051;48.882;9.210;2022-08-01T12:22:54;33.60;69.30
46335;DHT22;32051;48.882;9.210;2022-08-01T12:25:21;34.10;69.30
46335;DHT22;32051;48.882;9.210;2022-08-01T12:27:48;34.30;68.80
46335;DHT22;32051;48.882;9.210;2022-08-01T12:30:16;34.30;67.60
46335;DHT22;32051;48.882;9.210;2022-08-01T12:32:44;33.50;68.50
46335;DHT22;32051;48.882;9.210;2022-08-01T12:35:16;33.10;69.50
46335;DHT22;32051;48.882;9.210;2022-08-01T12:37:47;32.90;70.00
46335;DHT22;32051;48.882;9.210;2022-08-01T12:40:17;32.60;71.00
46335;DHT22;32051;48.882;9.210;2022-08-01T12:42:46;32.30;71.40
46335;DHT22;32051;48.882;9.210;2022-08-01T12:45:18;32.70;70.90
46335;DHT22;32051;48.882;9.210;2022-08-01T12:47:45;33.40;70.60
46335;DHT22;32051;48.882;9.210;2022-08-01T12:50:14;34.00;69.20
46335;DHT22;32051;48.882;9.210;2022-08-01T12:52:41;34.90;68.10
46335;DHT22;32051;48.882;9.210;2022-08-01T12:55:09;35.40;65.70
46335;DHT22;32051;48.882;9.210;2022-08-01T12:57:38;35.30;65.30
46335;DHT22;32051;48.882;9.210;2022-08-01T13:00:09;35.30;66.10
46335;DHT22;32051;48.882;9.210;2022-08-01T13:02:36;34.80;66.20
46335;DHT22;32051;48.882;9.210;2022-08-01T13:05:02;34.60;67.00
46335;DHT22;32051;48.882;9.210;2022-08-01T13:07:49;34.60;66.70
46335;DHT22;32051;48.882;9.210;2022-08-01T13:10:26;34.90;66.60
46335;DHT22;32051;48.882;9.210;2022-08-01T13:12:55;35.30;66.20
46335;DHT22;32051;48.882;9.210;2022-08-01T13:15:27;35.50;66.30
46335;DHT22;32051;48.882;9.210;2022-08-01T13:17:54;35.00;65.60
46335;DHT22;32051;48.882;9.210;2022-08-01T13:20:25;34.60;66.50
46335;DHT22;32051;48.882;9.210;2022-08-01T13:22:51;33.90;66.40
46335;DHT22;32051;48.882;9.210;2022-08-01T13:25:17;33.00;67.00
46335;DHT22;32051;48.882;9.210;2022-08-01T13:27:43;33.10;68.10
46335;DHT22;32051;48.882;9.210;2022-08-01T13:30:19;33.70;67.50
46335;DHT22;32051;48.882;9.210;2022-08-01T13:33:00;34.70;67.10
46335;DHT22;32051;48.882;9.210;2022-08-01T13:35:27;35.10;66.30
46335;DHT22;32051;48.882;9.210;2022-08-01T13:37:52;35.10;66.10
46335;DHT22;32051;48.882;9.210;2022-08-01T13:40:26;34.80;65.90
46335;DHT22;32051;48.882;9.210;2022-08-01T13:42:55;34.70;66.80
46335;DHT22;32051;48.882;9.210;2022-08-01T13:45:22;34.70;67.40
46335;DHT22;32051;48.882;9.210;2022-08-01T13:47:49;35.00;66.40
46335;DHT22;32051;48.882;9.210;2022-08-01T13:50:14;35.50;65.40
46335;DHT22;32051;48.882;9.210;2022-08-01T13:52:40;36.20;64.20
46335;DHT22;32051;48.882;9.210;2022-08-01T13:55:06;36.80;63.40
46335;DHT22;32051;48.882;9.210;2022-08-01T13:57:32;36.70;63.00
46335;DHT22;32051;48.882;9.210;2022-08-01T13:59:58;37.00;63.30
46335;DHT22;32051;48.882;9.210;2022-08-01T14:02:27;37.20;62.40
46335;DHT22;32051;48.882;9.210;2022-08-01T14:04:53;37.40;62.40
46335;DHT22;32051;48.882;9.210;2022-08-01T14:07:21;37.90;62.80
46335;DHT22;32051;48.882;9.210;2022-08-01T14:09:46;37.60;61.90
46335;DHT22;32051;48.882;9.210;2022-08-01T14:12:12;37.40;62.30
46335;DHT22;32051;48.882;9.210;2022-08-01T14:14:38;36.80;62.20
46335;DHT22;32051;48.882;9.210;2022-08-01T14:17:04;36.90;62.30
46335;DHT22;32051;48.882;9.210;2022-08-01T14:19:30;37.40;62.60
46335;DHT22;32051;48.882;9.210;2022-08-01T14:21:56;37.80;61.60
46335;DHT22;32051;48.882;9.210;2022-08-01T14:24:23;37.30;61.50
46335;DHT22;32051;48.882;9.210;2022-08-01T14:26:49;36.70;61.00
46335;DHT22;32051;48.882;9.210;2022-08-01T14:29:14;36.70;62.10
46335;DHT22;32051;48.882;9.210;2022-08-01T14:31:40;36.50;61.90
46335;DHT22;32051;48.882;9.210;2022-08-01T14:34:06;36.80;62.20
46335;DHT22;32051;48.882;9.210;2022-08-01T14:36:33;37.60;61.50
46335;DHT22;32051;48.882;9.210;2022-08-01T14:38:59;37.70;61.20
46335;DHT22;32051;48.882;9.210;2022-08-01T14:41:24;37.00;60.90
46335;DHT22;32051;48.882;9.210;2022-08-01T14:43:50;37.00;61.50
46335;DHT22;32051;48.882;9.210;2022-08-01T14:46:16;36.90;61.70
46335;DHT22;32051;48.882;9.210;2022-08-01T14:48:41;35.90;62.20
46335;DHT22;32051;48.882;9.210;2022-08-01T14:51:07;35.80;62.40
46335;DHT22;32051;48.882;9.210;2022-08-01T14:53:33;35.60;63.10
46335;DHT22;32051;48.882;9.210;2022-08-01T14:56:02;35.20;63.00
46335;DHT22;32051;48.882;9.210;2022-08-01T14:58:29;34.60;64.20
46335;DHT22;32051;48.882;9.210;2022-08-01T15:00:54;34.10;64.70
46335;DHT22;32051;48.882;9.210;2022-08-01T15:03:23;34.10;64.80
46335;DHT22;32051;48.882;9.210;2022-08-01T15:05:49;34.30;64.60
46335;DHT22;32051;48.882;9.210;2022-08-01T15:08:14;34.50;64.40
46335;DHT22;32051;48.882;9.210;2022-08-01T15:10:40;34.40;64.40
46335;DHT22;32051;48.882;9.210;2022-08-01T15:13:06;34.20;64.60
46335;DHT22;32051;48.882;9.210;2022-08-01T15:15:33;33.60;64.90
46335;DHT22;32051;48.882;9.210;2022-08-01T15:17:59;33.20;65.80
